createdAt,value
2019-04-28T00:01:26.221Z,73.80
2019-04-28T00:04:11.543Z,74.10
2019-04-28T00:09:34.957Z,73.70
2019-04-28T00:12:11.519Z,74.00
2019-04-28T00:14:52.605Z,74.20
2019-04-28T00:17:25.512Z,74.30
2019-04-28T00:20:18.165Z,74.50
2019-04-28T00:23:01.387Z,74.50
2019-04-28T00:25:41.069Z,74.80
2019-04-28T00:28:11.588Z,74.90
2019-04-28T00:31:02.487Z,75.00
2019-04-28T00:36:31.144Z,75.20
2019-04-28T00:39:11.159Z,75.10
2019-04-28T00:41:47.188Z,75.00
2019-04-28T00:44:26.225Z,75.10
2019-04-28T00:47:00.629Z,75.30
2019-04-28T00:49:51.985Z,75.20
2019-04-28T00:52:25.808Z,75.30
2019-04-28T00:55:16.872Z,75.40
2019-04-28T00:58:07.199Z,75.40
2019-04-28T01:00:45.866Z,75.40
2019-04-28T01:03:43.684Z,75.30
2019-04-28T01:06:22.208Z,75.30
2019-04-28T01:08:54.570Z,75.50
2019-04-28T01:11:27.634Z,75.60
2019-04-28T01:14:07.051Z,75.70
2019-04-28T01:16:49.809Z,75.60
2019-04-28T01:19:30.163Z,75.70
2019-04-28T01:22:14.315Z,75.80
2019-04-28T01:24:51.009Z,75.80
2019-04-28T01:27:50.865Z,76.10
2019-04-28T01:31:00.044Z,76.30
2019-04-28T01:33:54.604Z,76.30
2019-04-28T01:36:30.422Z,76.30
2019-04-28T01:39:02.244Z,76.40
2019-04-28T01:41:35.208Z,76.30
2019-04-28T01:44:05.755Z,76.20
2019-04-28T01:46:39.910Z,76.10
2019-04-28T01:49:13.693Z,76.20
2019-04-28T01:51:50.255Z,76.10
2019-04-28T01:54:25.173Z,76.00
2019-04-28T01:57:05.961Z,75.80
2019-04-28T01:59:39.744Z,75.70
2019-04-28T02:02:11.662Z,75.70
2019-04-28T02:04:41.464Z,75.80
2019-04-28T02:07:13.498Z,75.70
2019-04-28T02:09:53.125Z,75.60
2019-04-28T02:12:30.827Z,75.40
2019-04-28T02:15:03.172Z,75.20
2019-04-28T02:17:35.849Z,75.00
2019-04-28T02:20:07.529Z,74.80
2019-04-28T02:22:44.647Z,74.40
2019-04-28T02:25:17.698Z,74.50
2019-04-28T02:27:50.002Z,74.30
2019-04-28T02:30:32.528Z,74.00
2019-04-28T02:32:55.184Z,73.90
2019-04-28T02:35:31.421Z,73.90
2019-04-28T02:38:06.483Z,73.80
2019-04-28T02:40:42.334Z,73.70
2019-04-28T02:43:15.754Z,73.40
2019-04-28T02:45:53.054Z,72.80
2019-04-28T02:48:27.682Z,72.40
2019-04-28T02:51:04.338Z,72.10
2019-04-28T02:53:53.301Z,71.10
2019-04-28T02:56:25.712Z,71.00
2019-04-28T02:58:56.002Z,70.60
2019-04-28T03:01:30.640Z,70.30
2019-04-28T03:04:00.619Z,70.60
2019-04-28T03:06:34.058Z,70.50
2019-04-28T03:09:04.655Z,70.60
2019-04-28T03:11:35.389Z,70.50
2019-04-28T03:14:11.591Z,70.40
2019-04-28T03:16:42.842Z,70.50
2019-04-28T03:19:17.718Z,70.70
2019-04-28T03:21:54.839Z,70.70
2019-04-28T03:24:26.047Z,70.60
2019-04-28T03:27:20.467Z,70.10
2019-04-28T03:30:07.777Z,69.50
2019-04-28T03:32:53.733Z,69.40
2019-04-28T03:35:32.580Z,69.00
2019-04-28T03:38:05.053Z,69.30
2019-04-28T03:40:35.631Z,68.80
2019-04-28T03:43:06.711Z,69.30
2019-04-28T03:45:47.003Z,69.60
2019-04-28T03:48:35.858Z,69.50
2019-04-28T03:51:10.836Z,69.90
2019-04-28T03:53:42.597Z,70.20
2019-04-28T03:56:15.235Z,70.50
2019-04-28T03:58:50.569Z,70.80
2019-04-28T04:01:21.890Z,71.00
2019-04-28T04:03:54.815Z,71.20
2019-04-28T04:06:24.600Z,71.30
2019-04-28T04:09:00.158Z,71.20
2019-04-28T04:11:43.676Z,71.30
2019-04-28T04:14:31.245Z,71.40
2019-04-28T04:17:13.891Z,71.20
2019-04-28T04:19:51.032Z,71.50
2019-04-28T04:22:22.845Z,71.80
2019-04-28T04:24:57.156Z,71.50
2019-04-28T04:27:36.415Z,71.40
2019-04-28T04:30:13.155Z,71.20
2019-04-28T04:32:57.679Z,71.00
2019-04-28T04:35:31.575Z,71.20
2019-04-28T04:38:06.570Z,71.20
2019-04-28T04:40:56.869Z,71.40
2019-04-28T04:43:31.054Z,71.60
2019-04-28T04:46:25.746Z,71.90
2019-04-28T04:48:55.600Z,72.00
2019-04-28T04:51:26.945Z,71.60
2019-04-28T04:54:01.664Z,71.30
2019-04-28T04:56:50.109Z,71.60
2019-04-28T04:59:22.087Z,71.40
2019-04-28T05:02:36.839Z,71.30
2019-04-28T05:05:20.369Z,71.50
2019-04-28T05:07:53.779Z,71.10
2019-04-28T05:10:28.158Z,71.30
2019-04-28T05:13:00.222Z,71.30
2019-04-28T05:15:33.288Z,71.30
2019-04-28T05:18:12.186Z,71.20
2019-04-28T05:20:47.699Z,71.10
2019-04-28T05:23:26.833Z,70.80
2019-04-28T05:26:01.561Z,71.20
2019-04-28T05:28:36.414Z,71.30
2019-04-28T05:31:30.427Z,71.60
2019-04-28T05:34:04.149Z,71.40
2019-04-28T05:36:41.107Z,71.40
2019-04-28T05:39:10.462Z,71.20
2019-04-28T05:41:50.525Z,71.40
2019-04-28T05:44:21.299Z,71.10
2019-04-28T05:46:52.876Z,71.00
2019-04-28T05:49:45.355Z,71.50
2019-04-28T05:52:44.140Z,71.60
2019-04-28T05:55:21.311Z,71.20
2019-04-28T05:58:00.752Z,71.60
2019-04-28T06:00:41.706Z,71.70
2019-04-28T06:03:31.537Z,71.80
2019-04-28T06:06:01.521Z,71.90
2019-04-28T06:08:41.221Z,71.80
2019-04-28T06:11:30.767Z,71.50
2019-04-28T06:14:04.614Z,71.80
2019-04-28T06:16:34.887Z,71.60
2019-04-28T06:19:06.087Z,71.50
2019-04-28T06:21:36.175Z,71.30
2019-04-28T06:24:09.061Z,71.20
2019-04-28T06:26:45.085Z,71.20
2019-04-28T06:29:18.482Z,71.30
2019-04-28T06:31:54.647Z,71.40
2019-04-28T06:34:29.164Z,71.10
2019-04-28T06:37:11.945Z,70.80
2019-04-28T06:39:54.608Z,70.70
2019-04-28T06:42:34.932Z,70.70
2019-04-28T06:45:19.895Z,70.50
2019-04-28T06:48:10.831Z,70.30
2019-04-28T06:51:05.309Z,70.40
2019-04-28T06:53:58.596Z,70.20
2019-04-28T06:56:39.397Z,70.00
2019-04-28T06:59:14.195Z,69.60
2019-04-28T07:01:48.046Z,69.50
2019-04-28T07:04:33.264Z,69.60
2019-04-28T07:07:07.851Z,69.80
2019-04-28T07:09:43.433Z,69.30
2019-04-28T07:12:18.633Z,69.40
2019-04-28T07:15:35.015Z,69.60
2019-04-28T07:18:25.716Z,69.70
2019-04-28T07:21:15.147Z,70.00
2019-04-28T07:24:15.011Z,70.30
2019-04-28T07:26:50.363Z,70.10
2019-04-28T07:29:26.263Z,69.90
2019-04-28T07:32:14.521Z,69.80
2019-04-28T07:34:51.124Z,69.80
2019-04-28T07:37:23.359Z,69.80
2019-04-28T07:40:25.506Z,69.80
2019-04-28T07:42:55.875Z,69.70
2019-04-28T07:45:28.841Z,69.50
2019-04-28T07:48:01.290Z,69.60
2019-04-28T07:50:35.725Z,69.70
2019-04-28T07:53:46.226Z,69.80
2019-04-28T07:56:29.463Z,69.70
2019-04-28T08:00:01.038Z,70.00
2019-04-28T08:02:33.586Z,69.40
2019-04-28T08:05:26.271Z,69.10
2019-04-28T08:08:04.003Z,68.60
2019-04-28T08:10:50.919Z,68.80
2019-04-28T08:13:41.291Z,68.60
2019-04-28T08:16:34.162Z,66.40
2019-04-28T08:20:16.415Z,66.80
2019-04-28T08:23:19.188Z,67.30
2019-04-28T08:25:52.746Z,66.20
2019-04-28T08:28:36.863Z,66.50
2019-04-28T08:31:20.493Z,66.20
2019-04-28T08:34:02.997Z,66.40
2019-04-28T08:36:40.479Z,67.10
2019-04-28T08:39:18.827Z,67.10
2019-04-28T08:42:22.482Z,66.80
2019-04-28T08:45:22.729Z,66.40
2019-04-28T08:48:28.419Z,66.50
2019-04-28T08:51:14.759Z,67.60
2019-04-28T08:53:59.570Z,67.90
2019-04-28T08:56:39.370Z,68.20
2019-04-28T09:02:28.959Z,67.00
2019-04-28T09:05:03.938Z,67.20
2019-04-28T09:14:56.607Z,68.00
2019-04-28T09:20:51.255Z,66.10
2019-04-28T13:59:49.762Z,61.10
2019-04-28T14:03:17.804Z,61.50
2019-04-28T14:06:10.049Z,61.30
2019-04-28T14:08:49.479Z,61.80
2019-04-28T14:11:45.027Z,61.90
2019-04-28T14:14:21.576Z,61.80
2019-04-28T14:17:43.577Z,61.90
2019-04-28T14:20:36.210Z,61.80
2019-04-28T14:23:11.989Z,62.50
2019-04-28T14:26:29.177Z,62.80
2019-04-28T14:29:06.927Z,63.60
2019-04-28T14:32:03.435Z,63.20
2019-04-28T14:34:47.753Z,63.40
2019-04-28T14:37:51.469Z,63.50
2019-04-28T14:41:07.058Z,63.40
2019-04-28T14:43:40.017Z,63.60
2019-04-28T14:46:11.867Z,63.80
2019-04-28T14:48:42.322Z,62.90
2019-04-28T14:51:21.109Z,61.80
2019-04-28T14:54:31.587Z,61.60
2019-04-28T14:57:04.644Z,60.90
2019-04-28T14:59:36.641Z,60.60
2019-04-28T17:01:56.050Z,61.80
2019-04-28T17:05:38.147Z,61.90
2019-04-28T18:32:52.119Z,63.50
2019-04-28T18:35:57.966Z,63.50
2019-04-28T18:38:55.568Z,63.70
2019-04-28T18:42:28.506Z,63.70
2019-04-28T18:52:12.843Z,64.20
2019-04-28T18:54:53.485Z,64.20
2019-04-28T18:58:07.814Z,64.40
2019-04-28T19:00:40.582Z,64.60
2019-04-28T19:03:19.265Z,65.10
2019-04-28T19:05:55.964Z,65.60
2019-04-28T19:09:00.025Z,65.90
2019-04-28T19:11:50.176Z,66.20
2019-04-28T19:14:31.246Z,66.50
2019-04-28T19:17:20.390Z,66.80
2019-04-28T19:20:13.664Z,67.10
2019-04-28T19:22:48.495Z,67.20
2019-04-28T19:25:24.482Z,67.70
2019-04-28T22:23:32.354Z,77.70
2019-04-28T22:26:08.173Z,77.80
2019-04-28T22:29:02.005Z,77.80
2019-04-28T22:31:55.567Z,78.00
2019-04-28T22:34:49.266Z,78.00
2019-04-28T22:37:46.409Z,78.10
2019-04-28T22:41:07.494Z,78.10
2019-04-28T22:44:15.155Z,78.30
2019-04-28T22:51:11.856Z,78.30
2019-04-28T22:54:04.946Z,78.20
2019-04-28T23:02:58.685Z,78.20
2019-04-28T23:05:44.895Z,78.10
2019-04-28T23:09:02.547Z,78.00
2019-04-28T23:11:33.763Z,78.10
2019-04-28T23:17:25.522Z,78.00
2019-04-28T23:20:39.918Z,77.90
2019-04-28T23:30:17.253Z,77.90
